sensor_id;sensor_type;location;lat;lon;timestamp;P1;durP1;ratioP1;P2;durP2;ratioP2
70707;SDS011;58277;47.316;18.908;2023-10-19T00:00:38;32.73;;;15.77;;
70707;SDS011;58277;47.316;18.908;2023-10-19T00:03:06;33.00;;;16.23;;
70707;SDS011;58277;47.316;18.908;2023-10-19T00:05:29;32.22;;;16.25;;
70707;SDS011;58277;47.316;18.908;2023-10-19T00:07:54;38.17;;;17.25;;
70707;SDS011;58277;47.316;18.908;2023-10-19T00:10:19;37.25;;;16.27;;
70707;SDS011;58277;47.316;18.908;2023-10-19T00:12:43;30.73;;;15.27;;
70707;SDS011;58277;47.316;18.908;2023-10-19T00:15:06;27.30;;;14.55;;
70707;SDS011;58277;47.316;18.908;2023-10-19T00:17:31;30.58;;;14.68;;
70707;SDS011;58277;47.316;18.908;2023-10-19T00:19:55;31.30;;;15.00;;
70707;SDS011;58277;47.316;18.908;2023-10-19T00:22:40;30.60;;;15.23;;
70707;SDS011;58277;47.316;18.908;2023-10-19T00:25:03;34.37;;;15.40;;
70707;SDS011;58277;47.316;18.908;2023-10-19T00:27:26;28.90;;;15.18;;
70707;SDS011;58277;47.316;18.908;2023-10-19T00:29:49;28.02;;;14.80;;
70707;SDS011;58277;47.316;18.908;2023-10-19T00:32:17;28.55;;;14.65;;
70707;SDS011;58277;47.316;18.908;2023-10-19T00:34:41;30.33;;;15.25;;
70707;SDS011;58277;47.316;18.908;2023-10-19T00:37:12;29.40;;;14.63;;
70707;SDS011;58277;47.316;18.908;2023-10-19T00:39:41;30.35;;;14.63;;
70707;SDS011;58277;47.316;18.908;2023-10-19T00:42:06;29.58;;;13.82;;
70707;SDS011;58277;47.316;18.908;2023-10-19T00:44:29;28.52;;;14.35;;
70707;SDS011;58277;47.316;18.908;2023-10-19T00:47:04;30.10;;;15.23;;
70707;SDS011;58277;47.316;18.908;2023-10-19T00:49:35;31.27;;;15.33;;
70707;SDS011;58277;47.316;18.908;2023-10-19T00:52:00;32.92;;;15.40;;
70707;SDS011;58277;47.316;18.908;2023-10-19T00:54:41;31.60;;;15.55;;
70707;SDS011;58277;47.316;18.908;2023-10-19T00:57:08;33.67;;;16.75;;
70707;SDS011;58277;47.316;18.908;2023-10-19T00:59:34;37.65;;;17.50;;
70707;SDS011;58277;47.316;18.908;2023-10-19T01:02:06;37.80;;;17.47;;
70707;SDS011;58277;47.316;18.908;2023-10-19T01:04:53;40.33;;;18.42;;
70707;SDS011;58277;47.316;18.908;2023-10-19T01:07:29;36.08;;;18.15;;
70707;SDS011;58277;47.316;18.908;2023-10-19T01:09:59;36.83;;;17.40;;
70707;SDS011;58277;47.316;18.908;2023-10-19T01:12:28;36.53;;;17.90;;
70707;SDS011;58277;47.316;18.908;2023-10-19T01:17:39;39.30;;;18.67;;
70707;SDS011;58277;47.316;18.908;2023-10-19T01:20:07;39.25;;;19.70;;
70707;SDS011;58277;47.316;18.908;2023-10-19T01:22:43;38.65;;;19.38;;
70707;SDS011;58277;47.316;18.908;2023-10-19T01:25:30;38.47;;;19.20;;
70707;SDS011;58277;47.316;18.908;2023-10-19T01:28:02;38.03;;;19.63;;
70707;SDS011;58277;47.316;18.908;2023-10-19T01:30:30;40.95;;;20.38;;
70707;SDS011;58277;47.316;18.908;2023-10-19T01:32:53;40.13;;;20.05;;
70707;SDS011;58277;47.316;18.908;2023-10-19T01:35:15;40.78;;;20.13;;
70707;SDS011;58277;47.316;18.908;2023-10-19T01:37:38;41.92;;;20.48;;
70707;SDS011;58277;47.316;18.908;2023-10-19T01:40:01;41.70;;;21.57;;
70707;SDS011;58277;47.316;18.908;2023-10-19T01:42:24;40.72;;;20.52;;
70707;SDS011;58277;47.316;18.908;2023-10-19T01:44:47;42.45;;;21.30;;
70707;SDS011;58277;47.316;18.908;2023-10-19T01:47:10;40.42;;;19.95;;
70707;SDS011;58277;47.316;18.908;2023-10-19T01:49:33;43.28;;;20.67;;
70707;SDS011;58277;47.316;18.908;2023-10-19T01:51:56;42.83;;;20.93;;
70707;SDS011;58277;47.316;18.908;2023-10-19T01:54:19;40.40;;;20.08;;
70707;SDS011;58277;47.316;18.908;2023-10-19T01:56:47;44.33;;;21.38;;
70707;SDS011;58277;47.316;18.908;2023-10-19T01:59:09;44.65;;;21.00;;
70707;SDS011;58277;47.316;18.908;2023-10-19T02:01:32;45.28;;;21.73;;
70707;SDS011;58277;47.316;18.908;2023-10-19T02:03:58;41.30;;;20.97;;
70707;SDS011;58277;47.316;18.908;2023-10-19T02:06:23;43.38;;;21.38;;
70707;SDS011;58277;47.316;18.908;2023-10-19T02:09:13;45.35;;;22.92;;
70707;SDS011;58277;47.316;18.908;2023-10-19T02:11:53;43.90;;;21.55;;
70707;SDS011;58277;47.316;18.908;2023-10-19T02:14:20;44.35;;;22.08;;
70707;SDS011;58277;47.316;18.908;2023-10-19T02:16:44;46.63;;;22.73;;
70707;SDS011;58277;47.316;18.908;2023-10-19T02:19:15;45.35;;;21.75;;
70707;SDS011;58277;47.316;18.908;2023-10-19T02:21:38;47.08;;;22.17;;
70707;SDS011;58277;47.316;18.908;2023-10-19T02:24:04;45.65;;;22.88;;
70707;SDS011;58277;47.316;18.908;2023-10-19T02:26:27;42.78;;;21.52;;
70707;SDS011;58277;47.316;18.908;2023-10-19T02:28:53;47.83;;;22.40;;
70707;SDS011;58277;47.316;18.908;2023-10-19T02:31:15;44.75;;;21.50;;
70707;SDS011;58277;47.316;18.908;2023-10-19T02:33:42;44.70;;;22.30;;
70707;SDS011;58277;47.316;18.908;2023-10-19T02:36:08;44.60;;;21.48;;
70707;SDS011;58277;47.316;18.908;2023-10-19T02:38:35;44.85;;;22.13;;
70707;SDS011;58277;47.316;18.908;2023-10-19T02:40:58;46.90;;;23.27;;
70707;SDS011;58277;47.316;18.908;2023-10-19T02:43:20;42.85;;;21.55;;
70707;SDS011;58277;47.316;18.908;2023-10-19T02:45:45;44.80;;;22.55;;
70707;SDS011;58277;47.316;18.908;2023-10-19T02:48:10;42.88;;;20.95;;
70707;SDS011;58277;47.316;18.908;2023-10-19T02:50:35;44.75;;;21.67;;
70707;SDS011;58277;47.316;18.908;2023-10-19T02:52:58;44.87;;;23.00;;
70707;SDS011;58277;47.316;18.908;2023-10-19T02:55:20;44.90;;;22.27;;
70707;SDS011;58277;47.316;18.908;2023-10-19T02:57:47;48.85;;;23.60;;
70707;SDS011;58277;47.316;18.908;2023-10-19T03:00:09;45.53;;;22.88;;
70707;SDS011;58277;47.316;18.908;2023-10-19T03:02:36;46.55;;;22.33;;
70707;SDS011;58277;47.316;18.908;2023-10-19T03:05:01;48.10;;;23.10;;
70707;SDS011;58277;47.316;18.908;2023-10-19T03:07:23;48.60;;;22.60;;
70707;SDS011;58277;47.316;18.908;2023-10-19T03:09:46;43.70;;;21.70;;
70707;SDS011;58277;47.316;18.908;2023-10-19T03:12:16;46.97;;;22.30;;
70707;SDS011;58277;47.316;18.908;2023-10-19T03:14:40;46.50;;;21.70;;
70707;SDS011;58277;47.316;18.908;2023-10-19T03:17:06;45.47;;;22.77;;
70707;SDS011;58277;47.316;18.908;2023-10-19T03:19:31;49.45;;;23.10;;
70707;SDS011;58277;47.316;18.908;2023-10-19T03:21:54;47.55;;;22.48;;
70707;SDS011;58277;47.316;18.908;2023-10-19T03:24:23;47.00;;;22.70;;
70707;SDS011;58277;47.316;18.908;2023-10-19T03:26:46;46.00;;;23.38;;
70707;SDS011;58277;47.316;18.908;2023-10-19T03:29:11;49.17;;;23.03;;
70707;SDS011;58277;47.316;18.908;2023-10-19T03:31:38;50.08;;;22.38;;
70707;SDS011;58277;47.316;18.908;2023-10-19T03:34:07;49.95;;;22.25;;
70707;SDS011;58277;47.316;18.908;2023-10-19T03:36:30;52.15;;;23.45;;
70707;SDS011;58277;47.316;18.908;2023-10-19T03:38:55;45.75;;;22.25;;
70707;SDS011;58277;47.316;18.908;2023-10-19T03:41:21;50.50;;;23.53;;
70707;SDS011;58277;47.316;18.908;2023-10-19T03:43:47;49.05;;;22.30;;
70707;SDS011;58277;47.316;18.908;2023-10-19T03:46:13;49.55;;;23.20;;
70707;SDS011;58277;47.316;18.908;2023-10-19T03:48:53;51.97;;;23.17;;
70707;SDS011;58277;47.316;18.908;2023-10-19T03:51:20;49.85;;;23.25;;
70707;SDS011;58277;47.316;18.908;2023-10-19T03:53:47;48.50;;;21.73;;
70707;SDS011;58277;47.316;18.908;2023-10-19T03:56:16;48.83;;;23.00;;
70707;SDS011;58277;47.316;18.908;2023-10-19T03:58:39;51.65;;;23.63;;
70707;SDS011;58277;47.316;18.908;2023-10-19T04:01:05;50.20;;;23.35;;
70707;SDS011;58277;47.316;18.908;2023-10-19T04:03:27;56.80;;;23.65;;
70707;SDS011;58277;47.316;18.908;2023-10-19T04:05:53;51.70;;;23.80;;
70707;SDS011;58277;47.316;18.908;2023-10-19T04:08:16;47.67;;;23.05;;
70707;SDS011;58277;47.316;18.908;2023-10-19T04:10:42;50.72;;;23.48;;
70707;SDS011;58277;47.316;18.908;2023-10-19T04:13:22;50.20;;;23.33;;
70707;SDS011;58277;47.316;18.908;2023-10-19T04:15:45;50.08;;;23.58;;
70707;SDS011;58277;47.316;18.908;2023-10-19T04:18:07;51.17;;;23.97;;
70707;SDS011;58277;47.316;18.908;2023-10-19T04:20:33;51.10;;;23.67;;
70707;SDS011;58277;47.316;18.908;2023-10-19T04:23:14;53.15;;;24.00;;
70707;SDS011;58277;47.316;18.908;2023-10-19T04:25:38;49.28;;;24.30;;
70707;SDS011;58277;47.316;18.908;2023-10-19T04:28:01;52.47;;;23.95;;
70707;SDS011;58277;47.316;18.908;2023-10-19T04:30:25;46.10;;;22.83;;
70707;SDS011;58277;47.316;18.908;2023-10-19T04:32:49;56.30;;;24.02;;
70707;SDS011;58277;47.316;18.908;2023-10-19T04:35:13;52.40;;;24.42;;
70707;SDS011;58277;47.316;18.908;2023-10-19T04:37:37;49.63;;;23.98;;
70707;SDS011;58277;47.316;18.908;2023-10-19T04:40:05;49.90;;;22.75;;
70707;SDS011;58277;47.316;18.908;2023-10-19T04:42:29;54.20;;;24.90;;
70707;SDS011;58277;47.316;18.908;2023-10-19T04:44:52;49.75;;;24.42;;
70707;SDS011;58277;47.316;18.908;2023-10-19T04:47:15;50.88;;;24.10;;
70707;SDS011;58277;47.316;18.908;2023-10-19T04:49:37;50.72;;;23.35;;
70707;SDS011;58277;47.316;18.908;2023-10-19T04:52:00;49.55;;;23.88;;
70707;SDS011;58277;47.316;18.908;2023-10-19T04:54:23;49.00;;;23.00;;
70707;SDS011;58277;47.316;18.908;2023-10-19T04:56:46;52.70;;;24.58;;
70707;SDS011;58277;47.316;18.908;2023-10-19T04:59:08;51.47;;;23.45;;
70707;SDS011;58277;47.316;18.908;2023-10-19T05:01:31;49.33;;;22.63;;
70707;SDS011;58277;47.316;18.908;2023-10-19T05:03:57;48.15;;;22.80;;
70707;SDS011;58277;47.316;18.908;2023-10-19T05:06:20;48.40;;;23.43;;
70707;SDS011;58277;47.316;18.908;2023-10-19T05:08:44;49.72;;;23.70;;
70707;SDS011;58277;47.316;18.908;2023-10-19T05:11:08;49.63;;;22.92;;
70707;SDS011;58277;47.316;18.908;2023-10-19T05:13:31;47.55;;;23.70;;
70707;SDS011;58277;47.316;18.908;2023-10-19T05:15:55;47.78;;;23.70;;
70707;SDS011;58277;47.316;18.908;2023-10-19T05:18:18;48.47;;;23.30;;
70707;SDS011;58277;47.316;18.908;2023-10-19T05:20:43;50.95;;;23.27;;
70707;SDS011;58277;47.316;18.908;2023-10-19T05:23:06;49.03;;;22.65;;
70707;SDS011;58277;47.316;18.908;2023-10-19T05:25:30;51.25;;;23.17;;
70707;SDS011;58277;47.316;18.908;2023-10-19T05:27:53;50.00;;;23.52;;
70707;SDS011;58277;47.316;18.908;2023-10-19T05:30:16;47.70;;;22.10;;
70707;SDS011;58277;47.316;18.908;2023-10-19T05:32:39;50.42;;;22.88;;
70707;SDS011;58277;47.316;18.908;2023-10-19T05:35:03;46.70;;;21.35;;
70707;SDS011;58277;47.316;18.908;2023-10-19T05:37:28;47.55;;;22.02;;
70707;SDS011;58277;47.316;18.908;2023-10-19T05:39:51;51.50;;;23.27;;
70707;SDS011;58277;47.316;18.908;2023-10-19T05:42:14;46.70;;;21.00;;
70707;SDS011;58277;47.316;18.908;2023-10-19T05:44:40;48.13;;;22.30;;
70707;SDS011;58277;47.316;18.908;2023-10-19T05:47:03;49.00;;;23.00;;
70707;SDS011;58277;47.316;18.908;2023-10-19T05:49:26;48.38;;;22.70;;
70707;SDS011;58277;47.316;18.908;2023-10-19T05:51:51;47.28;;;21.80;;
70707;SDS011;58277;47.316;18.908;2023-10-19T05:54:14;46.87;;;22.10;;
70707;SDS011;58277;47.316;18.908;2023-10-19T05:56:38;53.28;;;22.85;;
70707;SDS011;58277;47.316;18.908;2023-10-19T05:59:01;48.33;;;21.95;;
70707;SDS011;58277;47.316;18.908;2023-10-19T06:01:24;50.63;;;21.98;;
70707;SDS011;58277;47.316;18.908;2023-10-19T06:03:47;51.30;;;23.10;;
70707;SDS011;58277;47.316;18.908;2023-10-19T06:06:10;51.07;;;22.27;;
70707;SDS011;58277;47.316;18.908;2023-10-19T06:08:35;50.95;;;21.50;;
70707;SDS011;58277;47.316;18.908;2023-10-19T06:10:58;50.58;;;22.25;;
70707;SDS011;58277;47.316;18.908;2023-10-19T06:13:21;46.25;;;21.92;;
70707;SDS011;58277;47.316;18.908;2023-10-19T06:15:44;53.83;;;22.20;;
70707;SDS011;58277;47.316;18.908;2023-10-19T06:18:07;46.43;;;21.90;;
70707;SDS011;58277;47.316;18.908;2023-10-19T06:20:30;50.17;;;22.13;;
70707;SDS011;58277;47.316;18.908;2023-10-19T06:22:53;46.63;;;21.30;;
70707;SDS011;58277;47.316;18.908;2023-10-19T06:25:19;50.72;;;21.67;;
70707;SDS011;58277;47.316;18.908;2023-10-19T06:27:46;49.75;;;22.85;;
70707;SDS011;58277;47.316;18.908;2023-10-19T06:30:10;49.47;;;22.43;;
70707;SDS011;58277;47.316;18.908;2023-10-19T06:32:33;49.17;;;21.92;;
70707;SDS011;58277;47.316;18.908;2023-10-19T06:34:56;48.08;;;21.63;;
70707;SDS011;58277;47.316;18.908;2023-10-19T06:37:20;47.30;;;21.27;;
70707;SDS011;58277;47.316;18.908;2023-10-19T06:39:43;48.95;;;22.33;;
70707;SDS011;58277;47.316;18.908;2023-10-19T06:42:07;55.37;;;23.40;;
70707;SDS011;58277;47.316;18.908;2023-10-19T06:44:36;49.95;;;21.38;;
70707;SDS011;58277;47.316;18.908;2023-10-19T06:46:59;48.67;;;22.63;;
70707;SDS011;58277;47.316;18.908;2023-10-19T06:49:22;51.58;;;22.48;;
70707;SDS011;58277;47.316;18.908;2023-10-19T06:51:44;50.05;;;22.70;;
70707;SDS011;58277;47.316;18.908;2023-10-19T06:54:07;51.40;;;22.50;;
70707;SDS011;58277;47.316;18.908;2023-10-19T06:56:30;47.58;;;21.70;;
70707;SDS011;58277;47.316;18.908;2023-10-19T06:58:55;48.97;;;22.15;;
70707;SDS011;58277;47.316;18.908;2023-10-19T07:01:19;46.38;;;22.00;;
70707;SDS011;58277;47.316;18.908;2023-10-19T07:03:45;47.90;;;21.20;;
70707;SDS011;58277;47.316;18.908;2023-10-19T07:06:08;46.13;;;21.23;;
70707;SDS011;58277;47.316;18.908;2023-10-19T07:08:36;46.70;;;21.25;;
70707;SDS011;58277;47.316;18.908;2023-10-19T07:10:59;49.65;;;22.45;;
70707;SDS011;58277;47.316;18.908;2023-10-19T07:13:22;50.22;;;22.27;;
70707;SDS011;58277;47.316;18.908;2023-10-19T07:15:46;44.65;;;21.48;;
70707;SDS011;58277;47.316;18.908;2023-10-19T07:18:14;46.97;;;20.73;;
70707;SDS011;58277;47.316;18.908;2023-10-19T07:20:39;45.92;;;21.38;;
70707;SDS011;58277;47.316;18.908;2023-10-19T07:23:02;42.60;;;19.83;;
70707;SDS011;58277;47.316;18.908;2023-10-19T07:25:50;44.17;;;20.42;;
70707;SDS011;58277;47.316;18.908;2023-10-19T07:28:23;48.53;;;21.67;;
70707;SDS011;58277;47.316;18.908;2023-10-19T07:30:50;50.20;;;20.93;;
70707;SDS011;58277;47.316;18.908;2023-10-19T07:33:14;46.42;;;21.15;;
70707;SDS011;58277;47.316;18.908;2023-10-19T07:35:40;48.75;;;21.58;;
70707;SDS011;58277;47.316;18.908;2023-10-19T07:38:05;46.65;;;21.90;;
70707;SDS011;58277;47.316;18.908;2023-10-19T07:40:29;46.13;;;21.10;;
70707;SDS011;58277;47.316;18.908;2023-10-19T07:42:53;45.13;;;21.37;;
70707;SDS011;58277;47.316;18.908;2023-10-19T07:45:17;41.85;;;19.85;;
70707;SDS011;58277;47.316;18.908;2023-10-19T07:47:41;45.28;;;20.48;;
70707;SDS011;58277;47.316;18.908;2023-10-19T07:50:04;41.65;;;20.60;;
70707;SDS011;58277;47.316;18.908;2023-10-19T07:52:28;44.00;;;21.23;;
70707;SDS011;58277;47.316;18.908;2023-10-19T07:54:50;42.23;;;20.17;;
70707;SDS011;58277;47.316;18.908;2023-10-19T07:57:13;42.75;;;20.77;;
70707;SDS011;58277;47.316;18.908;2023-10-19T07:59:36;41.25;;;20.60;;
70707;SDS011;58277;47.316;18.908;2023-10-19T08:02:02;41.90;;;20.73;;
70707;SDS011;58277;47.316;18.908;2023-10-19T08:04:26;44.53;;;19.90;;
70707;SDS011;58277;47.316;18.908;2023-10-19T08:06:50;40.13;;;19.47;;
70707;SDS011;58277;47.316;18.908;2023-10-19T08:09:13;39.17;;;19.42;;
70707;SDS011;58277;47.316;18.908;2023-10-19T08:11:40;39.80;;;19.73;;
70707;SDS011;58277;47.316;18.908;2023-10-19T08:14:04;41.50;;;19.77;;
70707;SDS011;58277;47.316;18.908;2023-10-19T08:16:27;37.30;;;17.85;;
70707;SDS011;58277;47.316;18.908;2023-10-19T08:18:50;38.20;;;18.77;;
70707;SDS011;58277;47.316;18.908;2023-10-19T08:21:18;39.20;;;19.42;;
70707;SDS011;58277;47.316;18.908;2023-10-19T08:23:40;40.28;;;19.25;;
70707;SDS011;58277;47.316;18.908;2023-10-19T08:26:04;38.50;;;18.70;;
70707;SDS011;58277;47.316;18.908;2023-10-19T08:28:28;35.65;;;18.35;;
70707;SDS011;58277;47.316;18.908;2023-10-19T08:30:51;35.90;;;18.27;;
70707;SDS011;58277;47.316;18.908;2023-10-19T08:33:23;34.13;;;17.08;;
70707;SDS011;58277;47.316;18.908;2023-10-19T08:35:48;36.03;;;17.95;;
70707;SDS011;58277;47.316;18.908;2023-10-19T08:38:11;35.80;;;17.48;;
70707;SDS011;58277;47.316;18.908;2023-10-19T08:43:38;32.97;;;16.97;;
70707;SDS011;58277;47.316;18.908;2023-10-19T08:46:02;33.63;;;16.05;;
70707;SDS011;58277;47.316;18.908;2023-10-19T08:48:24;33.35;;;16.67;;
70707;SDS011;58277;47.316;18.908;2023-10-19T08:50:47;30.60;;;16.67;;
70707;SDS011;58277;47.316;18.908;2023-10-19T08:53:11;30.92;;;16.05;;
70707;SDS011;58277;47.316;18.908;2023-10-19T08:55:36;33.27;;;16.73;;
70707;SDS011;58277;47.316;18.908;2023-10-19T08:58:10;31.05;;;15.77;;
70707;SDS011;58277;47.316;18.908;2023-10-19T09:00:46;31.58;;;16.08;;
70707;SDS011;58277;47.316;18.908;2023-10-19T09:03:12;29.95;;;16.27;;
70707;SDS011;58277;47.316;18.908;2023-10-19T09:05:38;29.05;;;15.70;;
70707;SDS011;58277;47.316;18.908;2023-10-19T09:08:02;33.70;;;16.77;;
70707;SDS011;58277;47.316;18.908;2023-10-19T09:10:28;30.83;;;16.05;;
70707;SDS011;58277;47.316;18.908;2023-10-19T09:13:04;29.77;;;15.70;;
70707;SDS011;58277;47.316;18.908;2023-10-19T09:15:31;28.70;;;15.00;;
70707;SDS011;58277;47.316;18.908;2023-10-19T09:17:58;29.80;;;15.88;;
70707;SDS011;58277;47.316;18.908;2023-10-19T09:20:36;27.47;;;13.90;;
70707;SDS011;58277;47.316;18.908;2023-10-19T09:22:58;28.27;;;14.75;;
70707;SDS011;58277;47.316;18.908;2023-10-19T09:25:24;27.20;;;14.75;;
70707;SDS011;58277;47.316;18.908;2023-10-19T09:27:47;26.05;;;14.13;;
70707;SDS011;58277;47.316;18.908;2023-10-19T09:30:09;27.52;;;14.75;;
70707;SDS011;58277;47.316;18.908;2023-10-19T09:32:36;24.77;;;14.07;;
70707;SDS011;58277;47.316;18.908;2023-10-19T09:34:59;28.40;;;14.80;;
70707;SDS011;58277;47.316;18.908;2023-10-19T09:37:23;28.80;;;14.38;;
70707;SDS011;58277;47.316;18.908;2023-10-19T09:39:49;24.38;;;12.95;;
70707;SDS011;58277;47.316;18.908;2023-10-19T09:42:11;26.55;;;13.88;;
70707;SDS011;58277;47.316;18.908;2023-10-19T09:44:40;28.17;;;14.27;;
70707;SDS011;58277;47.316;18.908;2023-10-19T09:47:05;24.20;;;13.63;;
70707;SDS011;58277;47.316;18.908;2023-10-19T09:49:35;28.88;;;16.60;;
70707;SDS011;58277;47.316;18.908;2023-10-19T09:51:57;23.83;;;13.52;;
70707;SDS011;58277;47.316;18.908;2023-10-19T09:57:07;26.20;;;12.95;;
70707;SDS011;58277;47.316;18.908;2023-10-19T09:59:40;25.10;;;13.18;;
70707;SDS011;58277;47.316;18.908;2023-10-19T10:04:38;25.00;;;13.50;;
70707;SDS011;58277;47.316;18.908;2023-10-19T10:07:02;24.90;;;13.05;;
70707;SDS011;58277;47.316;18.908;2023-10-19T10:09:28;23.70;;;12.73;;
70707;SDS011;58277;47.316;18.908;2023-10-19T10:11:52;24.42;;;13.45;;
70707;SDS011;58277;47.316;18.908;2023-10-19T10:14:48;24.48;;;13.57;;
70707;SDS011;58277;47.316;18.908;2023-10-19T10:17:16;24.55;;;13.50;;
70707;SDS011;58277;47.316;18.908;2023-10-19T10:19:41;23.55;;;13.30;;
70707;SDS011;58277;47.316;18.908;2023-10-19T10:22:07;24.67;;;12.98;;
70707;SDS011;58277;47.316;18.908;2023-10-19T10:24:41;23.17;;;13.15;;
70707;SDS011;58277;47.316;18.908;2023-10-19T10:27:04;23.35;;;12.52;;
70707;SDS011;58277;47.316;18.908;2023-10-19T10:29:27;23.08;;;12.90;;
70707;SDS011;58277;47.316;18.908;2023-10-19T10:31:51;23.30;;;13.00;;
70707;SDS011;58277;47.316;18.908;2023-10-19T10:37:08;21.90;;;12.93;;
70707;SDS011;58277;47.316;18.908;2023-10-19T10:39:33;26.20;;;13.48;;
70707;SDS011;58277;47.316;18.908;2023-10-19T10:41:59;19.65;;;11.77;;
70707;SDS011;58277;47.316;18.908;2023-10-19T10:45:12;20.88;;;10.98;;
70707;SDS011;58277;47.316;18.908;2023-10-19T10:47:17;17.73;;;10.38;;
70707;SDS011;58277;47.316;18.908;2023-10-19T10:49:53;17.90;;;10.70;;
70707;SDS011;58277;47.316;18.908;2023-10-19T10:52:28;19.05;;;9.93;;
70707;SDS011;58277;47.316;18.908;2023-10-19T10:55:12;16.77;;;9.63;;
70707;SDS011;58277;47.316;18.908;2023-10-19T10:57:37;16.27;;;10.40;;
70707;SDS011;58277;47.316;18.908;2023-10-19T11:00:02;16.17;;;9.95;;
70707;SDS011;58277;47.316;18.908;2023-10-19T11:02:32;15.85;;;9.35;;
70707;SDS011;58277;47.316;18.908;2023-10-19T11:04:57;15.48;;;9.45;;
70707;SDS011;58277;47.316;18.908;2023-10-19T11:07:20;16.70;;;8.85;;
70707;SDS011;58277;47.316;18.908;2023-10-19T11:09:43;15.38;;;9.63;;
70707;SDS011;58277;47.316;18.908;2023-10-19T11:12:10;16.50;;;8.93;;
70707;SDS011;58277;47.316;18.908;2023-10-19T11:14:34;17.52;;;9.40;;
70707;SDS011;58277;47.316;18.908;2023-10-19T11:17:11;14.85;;;9.13;;
70707;SDS011;58277;47.316;18.908;2023-10-19T11:19:39;14.07;;;8.88;;
70707;SDS011;58277;47.316;18.908;2023-10-19T11:22:02;15.27;;;9.43;;
70707;SDS011;58277;47.316;18.908;2023-10-19T11:24:26;17.42;;;9.02;;
70707;SDS011;58277;47.316;18.908;2023-10-19T11:26:52;16.88;;;10.02;;
70707;SDS011;58277;47.316;18.908;2023-10-19T11:29:17;14.05;;;8.70;;
70707;SDS011;58277;47.316;18.908;2023-10-19T11:31:40;16.48;;;8.77;;
70707;SDS011;58277;47.316;18.908;2023-10-19T11:34:05;14.75;;;8.77;;
70707;SDS011;58277;47.316;18.908;2023-10-19T11:36:28;13.55;;;8.52;;
70707;SDS011;58277;47.316;18.908;2023-10-19T11:38:51;16.38;;;9.80;;
70707;SDS011;58277;47.316;18.908;2023-10-19T11:41:16;14.43;;;8.98;;
70707;SDS011;58277;47.316;18.908;2023-10-19T11:43:42;14.65;;;8.32;;
70707;SDS011;58277;47.316;18.908;2023-10-19T11:46:07;13.48;;;8.18;;
70707;SDS011;58277;47.316;18.908;2023-10-19T11:48:30;13.10;;;8.15;;
70707;SDS011;58277;47.316;18.908;2023-10-19T11:50:54;14.98;;;8.82;;
70707;SDS011;58277;47.316;18.908;2023-10-19T11:53:17;13.95;;;8.65;;
70707;SDS011;58277;47.316;18.908;2023-10-19T11:55:40;14.93;;;8.48;;
70707;SDS011;58277;47.316;18.908;2023-10-19T11:58:04;14.88;;;9.20;;
70707;SDS011;58277;47.316;18.908;2023-10-19T12:00:27;15.93;;;8.75;;
70707;SDS011;58277;47.316;18.908;2023-10-19T12:02:56;14.10;;;8.27;;
70707;SDS011;58277;47.316;18.908;2023-10-19T12:05:19;16.65;;;8.52;;
70707;SDS011;58277;47.316;18.908;2023-10-19T12:07:42;14.05;;;8.35;;
70707;SDS011;58277;47.316;18.908;2023-10-19T12:10:07;13.57;;;8.20;;
70707;SDS011;58277;47.316;18.908;2023-10-19T12:12:31;13.25;;;8.27;;
70707;SDS011;58277;47.316;18.908;2023-10-19T12:15:01;12.57;;;7.78;;
70707;SDS011;58277;47.316;18.908;2023-10-19T12:17:25;11.63;;;7.20;;
70707;SDS011;58277;47.316;18.908;2023-10-19T12:19:50;13.55;;;7.60;;
70707;SDS011;58277;47.316;18.908;2023-10-19T12:22:13;13.77;;;7.93;;
70707;SDS011;58277;47.316;18.908;2023-10-19T12:24:35;15.15;;;8.20;;
70707;SDS011;58277;47.316;18.908;2023-10-19T12:26:58;12.60;;;8.00;;
70707;SDS011;58277;47.316;18.908;2023-10-19T12:29:21;13.48;;;7.72;;
70707;SDS011;58277;47.316;18.908;2023-10-19T12:31:44;16.48;;;7.78;;
70707;SDS011;58277;47.316;18.908;2023-10-19T12:34:09;16.52;;;8.88;;
70707;SDS011;58277;47.316;18.908;2023-10-19T12:36:35;13.07;;;7.60;;
70707;SDS011;58277;47.316;18.908;2023-10-19T12:38:58;17.35;;;8.40;;
70707;SDS011;58277;47.316;18.908;2023-10-19T12:41:21;15.57;;;7.95;;
70707;SDS011;58277;47.316;18.908;2023-10-19T12:43:44;14.63;;;8.30;;
70707;SDS011;58277;47.316;18.908;2023-10-19T12:46:08;13.90;;;7.55;;
70707;SDS011;58277;47.316;18.908;2023-10-19T12:48:31;13.40;;;7.60;;
70707;SDS011;58277;47.316;18.908;2023-10-19T12:50:56;12.32;;;7.50;;
70707;SDS011;58277;47.316;18.908;2023-10-19T12:53:18;11.93;;;7.43;;
70707;SDS011;58277;47.316;18.908;2023-10-19T12:55:44;11.65;;;7.25;;
70707;SDS011;58277;47.316;18.908;2023-10-19T12:58:07;12.35;;;7.70;;
70707;SDS011;58277;47.316;18.908;2023-10-19T13:00:31;11.40;;;7.40;;
70707;SDS011;58277;47.316;18.908;2023-10-19T13:02:58;10.63;;;6.85;;
70707;SDS011;58277;47.316;18.908;2023-10-19T13:05:24;13.23;;;7.30;;
70707;SDS011;58277;47.316;18.908;2023-10-19T13:07:48;14.32;;;6.93;;
70707;SDS011;58277;47.316;18.908;2023-10-19T13:10:12;12.02;;;6.75;;
70707;SDS011;58277;47.316;18.908;2023-10-19T13:12:35;9.93;;;6.45;;
70707;SDS011;58277;47.316;18.908;2023-10-19T13:14:59;18.35;;;7.15;;
70707;SDS011;58277;47.316;18.908;2023-10-19T13:17:21;12.23;;;7.18;;
70707;SDS011;58277;47.316;18.908;2023-10-19T13:19:44;12.40;;;6.38;;
70707;SDS011;58277;47.316;18.908;2023-10-19T13:22:07;12.05;;;6.93;;
70707;SDS011;58277;47.316;18.908;2023-10-19T13:24:30;10.93;;;6.20;;
70707;SDS011;58277;47.316;18.908;2023-10-19T13:26:54;11.35;;;6.72;;
70707;SDS011;58277;47.316;18.908;2023-10-19T13:29:17;11.23;;;6.63;;
70707;SDS011;58277;47.316;18.908;2023-10-19T13:31:41;11.63;;;6.50;;
70707;SDS011;58277;47.316;18.908;2023-10-19T13:34:11;11.38;;;6.30;;
70707;SDS011;58277;47.316;18.908;2023-10-19T13:36:36;9.98;;;6.30;;
70707;SDS011;58277;47.316;18.908;2023-10-19T13:38:59;10.80;;;6.82;;
70707;SDS011;58277;47.316;18.908;2023-10-19T13:41:21;9.90;;;6.15;;
70707;SDS011;58277;47.316;18.908;2023-10-19T13:43:44;13.25;;;6.63;;
70707;SDS011;58277;47.316;18.908;2023-10-19T13:46:07;12.45;;;6.35;;
70707;SDS011;58277;47.316;18.908;2023-10-19T13:48:31;12.90;;;6.13;;
70707;SDS011;58277;47.316;18.908;2023-10-19T13:50:56;10.27;;;5.97;;
70707;SDS011;58277;47.316;18.908;2023-10-19T13:53:22;10.60;;;6.13;;
70707;SDS011;58277;47.316;18.908;2023-10-19T13:55:45;14.27;;;6.38;;
70707;SDS011;58277;47.316;18.908;2023-10-19T13:58:08;10.13;;;6.05;;
70707;SDS011;58277;47.316;18.908;2023-10-19T14:00:31;15.75;;;7.05;;
70707;SDS011;58277;47.316;18.908;2023-10-19T14:02:57;12.40;;;6.47;;
70707;SDS011;58277;47.316;18.908;2023-10-19T14:05:21;11.07;;;6.05;;
70707;SDS011;58277;47.316;18.908;2023-10-19T14:07:46;11.20;;;6.45;;
70707;SDS011;58277;47.316;18.908;2023-10-19T14:10:09;12.25;;;6.15;;
70707;SDS011;58277;47.316;18.908;2023-10-19T14:12:35;11.65;;;6.30;;
70707;SDS011;58277;47.316;18.908;2023-10-19T14:14:58;11.55;;;5.90;;